createdAt,value
2023-01-19T00:01:08.338Z,97819.09
2023-01-19T00:03:36.890Z,97820.66
2023-01-19T00:06:08.571Z,97822.38
2023-01-19T00:08:36.469Z,97826.66
2023-01-19T00:11:04.039Z,97828.28
2023-01-19T00:13:32.117Z,97825.03
2023-01-19T00:15:59.323Z,97821.91
2023-01-19T00:18:26.757Z,97828.25
2023-01-19T00:20:53.976Z,97826.72
2023-01-19T00:23:21.453Z,97820.56
2023-01-19T00:25:49.964Z,97833.41
2023-01-19T00:28:19.750Z,97820.59
2023-01-19T00:30:46.909Z,97823.75
2023-01-19T00:33:15.280Z,97818.38
2023-01-19T00:35:45.439Z,97825.34
2023-01-19T00:38:13.036Z,97831.81
2023-01-19T00:40:40.237Z,97836.88
2023-01-19T00:43:07.654Z,97838.06
2023-01-19T00:45:35.017Z,97839.41
2023-01-19T00:48:02.557Z,97847.22
2023-01-19T00:50:32.119Z,97839.44
2023-01-19T00:53:01.944Z,97843.19
2023-01-19T00:55:31.583Z,97836.03
2023-01-19T00:57:59.478Z,97840.03
2023-01-19T01:00:26.973Z,97846.03
2023-01-19T01:02:54.962Z,97845.09
2023-01-19T01:05:22.652Z,97841.03
2023-01-19T01:07:50.898Z,97843.75
2023-01-19T01:10:26.104Z,97851.47
2023-01-19T01:12:57.029Z,97851.41
2023-01-19T01:15:29.994Z,97848.41
2023-01-19T01:17:57.472Z,97850.91
2023-01-19T01:20:30.241Z,97847.28
2023-01-19T01:22:58.560Z,97848.63
2023-01-19T01:25:28.540Z,97843.19
2023-01-19T01:27:55.917Z,97849.03
2023-01-19T01:30:23.884Z,97844.22
2023-01-19T01:32:51.391Z,97850.75
2023-01-19T01:35:18.962Z,97849.53
2023-01-19T01:37:46.381Z,97852.88
2023-01-19T01:40:17.284Z,97855.38
2023-01-19T01:42:46.178Z,97860.56
2023-01-19T01:45:38.422Z,97863.44
2023-01-19T01:48:24.568Z,97855.19
2023-01-19T01:51:19.729Z,97858.47
2023-01-19T01:54:01.895Z,97866.81
2023-01-19T01:56:39.657Z,97859.97
2023-01-19T01:59:25.795Z,97859.75
2023-01-19T02:02:19.746Z,97863.84
2023-01-19T02:04:59.352Z,97866.66
2023-01-19T02:08:25.768Z,97865.25
2023-01-19T02:11:15.325Z,97868.69
2023-01-19T02:13:45.122Z,97866.81
2023-01-19T02:16:13.825Z,97865.16
2023-01-19T02:18:43.426Z,97865.16
2023-01-19T02:21:37.160Z,97858.28
2023-01-19T02:24:05.944Z,97861.63
2023-01-19T02:26:42.766Z,97856.25
2023-01-19T02:29:23.693Z,97849.09
2023-01-19T02:31:52.450Z,97862.88
2023-01-19T02:34:21.714Z,97858.88
2023-01-19T02:37:18.455Z,97859.66
2023-01-19T02:39:55.416Z,97866.16
2023-01-19T02:42:49.750Z,97864.00
2023-01-19T02:45:22.465Z,97869.53
2023-01-19T02:47:53.300Z,97871.88
2023-01-19T02:50:49.265Z,97875.63
2023-01-19T02:54:05.467Z,97874.38
2023-01-19T02:57:27.795Z,97886.69
2023-01-19T03:00:22.556Z,97880.00
2023-01-19T03:03:13.667Z,97880.00
2023-01-19T03:06:04.760Z,97883.63
2023-01-19T03:08:56.222Z,97875.13
2023-01-19T03:11:34.056Z,97878.44
2023-01-19T03:14:15.084Z,97869.88
2023-01-19T03:16:58.061Z,97883.75
2023-01-19T03:19:39.460Z,97871.38
2023-01-19T03:22:17.749Z,97875.63
2023-01-19T03:24:48.415Z,97878.53
2023-01-19T03:27:35.925Z,97874.44
2023-01-19T03:30:33.136Z,97881.00
2023-01-19T03:33:15.331Z,97891.34
2023-01-19T03:35:52.796Z,97893.84
2023-01-19T03:38:27.491Z,97890.06
2023-01-19T03:41:04.681Z,97894.63
2023-01-19T03:43:34.109Z,97899.03
2023-01-19T03:46:04.237Z,97898.59
2023-01-19T03:48:33.029Z,97896.50
2023-01-19T03:51:08.143Z,97887.97
2023-01-19T03:53:36.057Z,97891.88
2023-01-19T03:56:04.051Z,97895.50
2023-01-19T03:58:31.481Z,97894.41
2023-01-19T04:00:59.370Z,97894.81
2023-01-19T04:03:26.692Z,97886.25
2023-01-19T04:05:57.162Z,97895.16
2023-01-19T04:08:24.617Z,97904.38
2023-01-19T04:10:52.005Z,97897.63
2023-01-19T04:13:19.422Z,97897.03
2023-01-19T04:15:46.951Z,97895.69
2023-01-19T04:18:14.201Z,97900.34
2023-01-19T04:20:41.633Z,97890.25
2023-01-19T04:23:09.152Z,97899.91
2023-01-19T04:25:38.134Z,97903.78
2023-01-19T04:28:06.241Z,97906.94
2023-01-19T04:30:33.937Z,97907.47
2023-01-19T04:33:01.900Z,97908.38
2023-01-19T04:35:29.656Z,97900.69
2023-01-19T04:37:57.089Z,97903.25
2023-01-19T04:40:24.488Z,97908.66
2023-01-19T04:42:51.976Z,97915.13
2023-01-19T04:45:19.279Z,97911.13
2023-01-19T04:47:46.911Z,97909.16
2023-01-19T04:50:15.383Z,97910.63
2023-01-19T04:52:43.776Z,97916.00
2023-01-19T04:55:16.130Z,97909.38
2023-01-19T04:57:44.175Z,97912.16
2023-01-19T05:00:13.107Z,97914.81
2023-01-19T05:02:45.357Z,97914.16
2023-01-19T05:05:14.589Z,97919.81
2023-01-19T05:07:43.464Z,97914.69
2023-01-19T05:10:12.494Z,97914.34
2023-01-19T05:12:40.023Z,97910.63
2023-01-19T05:15:12.536Z,97908.50
2023-01-19T05:17:42.967Z,97913.09
2023-01-19T05:20:16.045Z,97919.19
2023-01-19T05:22:53.523Z,97917.06
2023-01-19T05:25:21.456Z,97924.50
2023-01-19T05:27:49.034Z,97924.44
2023-01-19T05:30:18.060Z,97928.53
2023-01-19T05:32:45.367Z,97934.06
2023-01-19T05:35:20.218Z,97933.22
2023-01-19T05:37:52.573Z,97931.88
2023-01-19T05:40:23.394Z,97930.69
2023-01-19T05:42:50.731Z,97932.75
2023-01-19T05:45:18.394Z,97925.78
2023-01-19T05:47:45.833Z,97931.44
2023-01-19T05:50:13.976Z,97942.41
2023-01-19T05:52:41.735Z,97935.84
2023-01-19T05:55:09.878Z,97942.78
2023-01-19T05:57:37.396Z,97943.03
2023-01-19T06:00:07.001Z,97950.53
2023-01-19T06:02:36.438Z,97950.66
2023-01-19T06:05:04.929Z,97954.44
2023-01-19T06:07:32.837Z,97957.38
2023-01-19T06:10:00.401Z,97957.50
2023-01-19T06:12:28.163Z,97955.19
2023-01-19T06:14:55.599Z,97961.88
2023-01-19T06:17:23.127Z,97955.81
2023-01-19T06:19:50.445Z,97965.63
2023-01-19T06:22:17.951Z,97959.16
2023-01-19T06:24:45.492Z,97961.53
2023-01-19T06:27:13.780Z,97964.66
2023-01-19T06:29:41.206Z,97959.00
2023-01-19T06:32:08.813Z,97966.41
2023-01-19T06:34:36.048Z,97961.47
2023-01-19T06:37:04.009Z,97963.63
2023-01-19T06:39:31.323Z,97972.84
2023-01-19T06:41:58.657Z,97969.34
2023-01-19T06:44:30.882Z,97971.97
2023-01-19T06:47:14.614Z,97964.56
2023-01-19T06:49:53.562Z,97968.31
2023-01-19T06:52:21.006Z,97972.47
2023-01-19T06:54:48.405Z,97975.16
2023-01-19T06:57:17.351Z,97977.00
2023-01-19T06:59:45.068Z,97975.47
2023-01-19T07:02:26.220Z,97981.06
2023-01-19T07:04:58.169Z,97980.09
2023-01-19T07:07:27.895Z,97983.91
2023-01-19T07:09:56.173Z,97981.03
2023-01-19T07:12:24.434Z,97984.09
2023-01-19T07:14:52.902Z,97981.38
2023-01-19T07:17:20.440Z,97991.38
2023-01-19T07:19:48.110Z,97990.56
2023-01-19T07:22:15.628Z,97987.19
2023-01-19T07:24:43.015Z,97989.88
2023-01-19T07:27:11.672Z,97998.41
2023-01-19T07:29:39.671Z,98001.97
2023-01-19T07:32:07.752Z,97994.56
2023-01-19T07:34:36.154Z,98006.63
2023-01-19T07:37:04.504Z,98003.19
2023-01-19T07:39:32.143Z,98011.88
2023-01-19T07:41:59.776Z,98020.28
2023-01-19T07:44:28.045Z,98022.38
2023-01-19T07:46:56.059Z,98011.94
2023-01-19T07:49:23.692Z,98009.03
2023-01-19T07:51:51.028Z,98021.09
2023-01-19T07:54:18.399Z,98019.28
2023-01-19T07:56:45.843Z,98025.38
2023-01-19T07:59:13.369Z,98015.78
2023-01-19T08:01:41.199Z,98021.53
2023-01-19T08:04:08.776Z,98013.78
2023-01-19T08:06:39.950Z,98032.06
2023-01-19T08:09:08.875Z,98018.34
2023-01-19T08:11:38.973Z,98032.84
2023-01-19T08:14:08.091Z,98041.19
2023-01-19T08:16:37.165Z,98037.84
2023-01-19T08:19:08.506Z,98042.19
2023-01-19T08:21:36.548Z,98037.59
2023-01-19T08:24:06.870Z,98046.81
2023-01-19T08:26:36.710Z,98049.25
2023-01-19T08:29:06.862Z,98048.78
2023-01-19T08:31:34.712Z,98053.81
2023-01-19T08:34:09.036Z,98051.50
2023-01-19T08:37:05.979Z,98050.72
2023-01-19T08:39:34.423Z,98050.88
2023-01-19T08:42:06.088Z,98046.47
2023-01-19T08:44:46.680Z,98044.84
2023-01-19T08:47:23.413Z,98043.47
2023-01-19T08:49:54.428Z,98049.19
2023-01-19T08:52:26.923Z,98054.97
2023-01-19T08:54:59.045Z,98054.69
2023-01-19T08:57:29.727Z,98045.19
2023-01-19T08:59:58.746Z,98058.06
2023-01-19T09:02:28.630Z,98050.75
2023-01-19T09:04:56.438Z,98057.63
2023-01-19T09:07:24.155Z,98055.41
2023-01-19T09:10:05.505Z,98055.75
2023-01-19T09:12:33.568Z,98055.00
2023-01-19T09:15:01.486Z,98058.16
2023-01-19T09:17:29.202Z,98052.72
2023-01-19T09:19:56.847Z,98061.03
2023-01-19T09:22:25.360Z,98057.31
2023-01-19T09:24:53.989Z,98066.69
2023-01-19T09:27:21.793Z,98069.06
2023-01-19T09:29:53.108Z,98074.53
2023-01-19T09:32:23.149Z,98082.03
2023-01-19T09:34:56.600Z,98084.28
2023-01-19T09:37:34.318Z,98079.22
2023-01-19T09:40:04.463Z,98083.56
2023-01-19T09:43:31.543Z,98089.13
2023-01-19T09:46:13.864Z,98089.94
2023-01-19T09:48:59.225Z,98091.97
2023-01-19T09:51:43.888Z,98084.13
2023-01-19T09:54:19.614Z,98083.06
2023-01-19T09:56:52.715Z,98082.72
2023-01-19T09:59:31.197Z,98076.44
2023-01-19T10:02:16.646Z,98074.38
2023-01-19T10:05:29.985Z,98076.19
2023-01-19T10:08:27.486Z,98080.78
2023-01-19T10:10:58.481Z,98081.66
2023-01-19T10:13:47.496Z,98084.78
2023-01-19T10:16:44.716Z,98083.50
2023-01-19T10:19:44.646Z,98079.34
2023-01-19T10:22:33.055Z,98077.53
2023-01-19T10:25:07.548Z,98068.69
2023-01-19T10:27:37.638Z,98065.56
2023-01-19T10:30:17.064Z,98069.44
2023-01-19T10:32:45.749Z,98069.41
2023-01-19T10:35:38.356Z,98061.38
2023-01-19T10:38:18.387Z,98065.31
2023-01-19T10:41:20.892Z,98055.34
2023-01-19T10:43:50.895Z,98060.66
2023-01-19T10:46:48.848Z,98059.84
2023-01-19T10:49:40.476Z,98052.84
2023-01-19T10:52:42.326Z,98049.56
2023-01-19T10:55:31.426Z,98061.97
2023-01-19T10:58:00.797Z,98051.97
2023-01-19T11:00:43.068Z,98046.72
2023-01-19T11:03:32.035Z,98048.75
2023-01-19T11:06:29.082Z,98044.50
2023-01-19T11:09:20.443Z,98049.59
2023-01-19T11:11:53.723Z,98052.03
2023-01-19T11:14:25.355Z,98042.09
2023-01-19T11:16:57.803Z,98052.16
2023-01-19T11:19:56.530Z,98050.03
2023-01-19T11:22:32.514Z,98045.91
2023-01-19T11:25:04.369Z,98039.63
2023-01-19T11:27:37.873Z,98052.06
2023-01-19T11:30:20.311Z,98046.28
2023-01-19T11:32:49.389Z,98054.28
2023-01-19T11:35:51.327Z,98051.75
2023-01-19T11:38:23.298Z,98044.56
2023-01-19T11:40:59.980Z,98050.75
2023-01-19T11:43:43.560Z,98051.34
2023-01-19T11:46:17.774Z,98044.84
2023-01-19T11:49:05.060Z,98039.44
2023-01-19T11:51:52.414Z,98031.41
2023-01-19T11:54:30.023Z,98025.50
2023-01-19T11:57:00.532Z,98021.22
2023-01-19T11:59:28.696Z,98021.84
2023-01-19T12:02:02.491Z,98019.31
2023-01-19T12:04:39.569Z,98017.72
2023-01-19T12:07:18.941Z,98020.13
2023-01-19T12:09:58.173Z,98012.69
2023-01-19T12:12:38.342Z,98014.47
2023-01-19T12:15:37.096Z,98007.84
2023-01-19T12:18:15.571Z,98009.91
2023-01-19T12:20:53.120Z,98007.91
2023-01-19T12:23:48.509Z,98017.31
2023-01-19T12:26:33.372Z,98024.59
2023-01-19T12:29:21.979Z,98015.25
2023-01-19T12:32:14.399Z,98017.38
2023-01-19T12:34:45.104Z,98008.47
2023-01-19T12:37:29.358Z,98018.53
2023-01-19T12:40:30.225Z,98023.41
2023-01-19T12:43:06.068Z,98022.09
2023-01-19T12:45:40.073Z,98024.97
2023-01-19T12:48:26.469Z,98025.59
2023-01-19T12:50:54.124Z,98025.78
2023-01-19T12:53:22.742Z,98023.47
2023-01-19T12:56:06.065Z,98028.34
2023-01-19T12:58:34.572Z,98026.66
2023-01-19T13:01:21.636Z,98030.66
2023-01-19T13:04:09.267Z,98021.56
2023-01-19T13:06:48.653Z,98028.91
2023-01-19T13:09:38.491Z,98024.78
2023-01-19T13:12:14.880Z,98026.84
2023-01-19T13:14:43.761Z,98020.94
2023-01-19T13:17:55.256Z,98016.56
2023-01-19T13:20:48.522Z,98015.03
2023-01-19T13:23:35.106Z,98028.47
2023-01-19T13:26:07.170Z,98017.66
2023-01-19T13:29:05.308Z,98014.78
2023-01-19T13:31:45.571Z,98030.22
2023-01-19T13:34:19.592Z,98019.97
2023-01-19T13:36:53.872Z,98034.56
2023-01-19T13:39:31.870Z,98033.59
2023-01-19T13:42:15.234Z,98030.22
2023-01-19T13:44:52.355Z,98036.84
2023-01-19T13:47:47.638Z,98038.97
2023-01-19T13:50:30.916Z,98039.03
2023-01-19T13:52:59.573Z,98042.19
2023-01-19T13:55:30.902Z,98046.47
2023-01-19T13:57:58.807Z,98050.31
2023-01-19T14:00:31.192Z,98054.13
2023-01-19T14:03:19.050Z,98048.84
2023-01-19T14:05:55.929Z,98052.66
2023-01-19T14:08:36.423Z,98054.25
2023-01-19T14:11:15.961Z,98046.84
2023-01-19T14:13:54.668Z,98046.19
2023-01-19T14:16:29.591Z,98043.88
2023-01-19T14:19:10.007Z,98055.94
2023-01-19T14:21:46.974Z,98046.59
2023-01-19T14:24:20.924Z,98047.22
2023-01-19T14:27:28.237Z,98046.16
2023-01-19T14:30:29.486Z,98047.94
2023-01-19T14:33:00.700Z,98043.59
2023-01-19T14:35:36.059Z,98050.81
2023-01-19T14:38:04.889Z,98045.44
2023-01-19T14:40:41.311Z,98052.09
2023-01-19T14:43:27.297Z,98050.50
2023-01-19T14:46:17.464Z,98052.19
2023-01-19T14:49:03.659Z,98052.25
2023-01-19T14:51:33.251Z,98044.72
2023-01-19T14:54:05.322Z,98045.56
2023-01-19T14:56:37.024Z,98046.53
2023-01-19T14:59:11.867Z,98045.31
2023-01-19T15:01:41.911Z,98052.81
2023-01-19T15:04:12.304Z,98047.16
2023-01-19T15:06:46.135Z,98047.78
2023-01-19T15:09:18.719Z,98049.31
2023-01-19T15:11:51.998Z,98043.19
2023-01-19T15:14:22.429Z,98049.59
2023-01-19T15:16:51.228Z,98048.09
2023-01-19T15:19:23.194Z,98042.69
2023-01-19T15:21:51.648Z,98050.41
2023-01-19T15:24:24.569Z,98043.91
2023-01-19T15:27:01.679Z,98048.66
2023-01-19T15:29:31.524Z,98044.09
2023-01-19T15:31:59.841Z,98047.16
2023-01-19T15:34:27.681Z,98041.97
2023-01-19T15:36:57.685Z,98041.44
2023-01-19T15:39:26.658Z,98037.97
2023-01-19T15:41:54.652Z,98042.16
2023-01-19T15:44:22.625Z,98038.91
2023-01-19T15:46:50.399Z,98038.91
2023-01-19T15:49:20.737Z,98043.16
2023-01-19T15:51:48.281Z,98037.97
2023-01-19T15:54:20.580Z,98040.59
2023-01-19T15:56:53.468Z,98043.75
2023-01-19T15:59:29.336Z,98042.16
2023-01-19T16:02:12.614Z,98040.44
2023-01-19T16:04:53.103Z,98030.03
2023-01-19T16:07:21.176Z,98044.81
2023-01-19T16:09:55.824Z,98038.44
2023-01-19T16:12:23.772Z,98045.78
2023-01-19T16:14:51.430Z,98039.25
2023-01-19T16:17:23.072Z,98044.34
2023-01-19T16:19:50.578Z,98043.94
2023-01-19T16:22:18.166Z,98039.97
2023-01-19T16:24:45.848Z,98049.03
2023-01-19T16:27:16.115Z,98043.34
2023-01-19T16:29:43.907Z,98040.59
2023-01-19T16:32:11.604Z,98044.63
2023-01-19T16:34:39.498Z,98038.66
2023-01-19T16:37:08.029Z,98040.81
2023-01-19T16:39:36.156Z,98046.28
2023-01-19T16:42:04.812Z,98045.59
2023-01-19T16:44:33.064Z,98051.63
2023-01-19T16:47:00.875Z,98040.28
2023-01-19T16:49:28.815Z,98048.84
2023-01-19T16:51:58.674Z,98038.50
2023-01-19T16:54:28.426Z,98038.41
2023-01-19T16:56:58.064Z,98045.75
2023-01-19T16:59:27.167Z,98048.00
2023-01-19T17:01:54.959Z,98061.13
2023-01-19T17:04:26.451Z,98050.44
2023-01-19T17:06:55.353Z,98052.59
2023-01-19T17:09:22.809Z,98047.03
2023-01-19T17:11:50.247Z,98044.31
2023-01-19T17:14:20.600Z,98045.72
2023-01-19T17:16:48.858Z,98047.69
2023-01-19T17:19:22.218Z,98043.72
2023-01-19T17:21:50.466Z,98046.59
2023-01-19T17:24:18.378Z,98046.28
2023-01-19T17:26:52.314Z,98049.56
2023-01-19T17:29:19.892Z,98052.91
2023-01-19T17:31:51.027Z,98050.41
2023-01-19T17:34:18.592Z,98053.47
2023-01-19T17:36:45.911Z,98047.13
2023-01-19T17:39:18.736Z,98056.03
2023-01-19T17:41:47.830Z,98052.81
2023-01-19T17:44:16.074Z,98050.50
2023-01-19T17:46:43.292Z,98057.97
2023-01-19T17:49:11.525Z,98047.31
2023-01-19T17:51:38.765Z,98052.38
2023-01-19T17:54:15.418Z,98056.41
2023-01-19T17:56:42.729Z,98058.25
2023-01-19T17:59:10.664Z,98063.56
2023-01-19T18:01:45.585Z,98059.47
2023-01-19T18:04:18.381Z,98064.03
2023-01-19T18:06:53.588Z,98059.69
2023-01-19T18:10:58.485Z,98061.75
2023-01-19T18:13:03.361Z,98064.16
2023-01-19T18:15:37.688Z,98068.66
2023-01-19T18:18:13.957Z,98073.44
2023-01-19T18:20:44.537Z,98068.88
2023-01-19T18:23:12.756Z,98071.75
2023-01-19T18:25:41.047Z,98066.34
2023-01-19T18:28:08.640Z,98072.53
2023-01-19T18:30:40.658Z,98073.38
2023-01-19T18:33:08.108Z,98062.00
2023-01-19T18:35:39.645Z,98068.97
2023-01-19T18:38:07.024Z,98069.53
2023-01-19T18:40:34.426Z,98066.47
2023-01-19T18:43:01.687Z,98068.00
2023-01-19T18:45:29.199Z,98072.97
2023-01-19T18:47:56.818Z,98071.53
2023-01-19T18:50:24.508Z,98071.84
2023-01-19T18:52:52.787Z,98063.66
2023-01-19T18:55:20.274Z,98063.03
2023-01-19T18:57:48.881Z,98071.31
2023-01-19T19:00:18.535Z,98069.84
2023-01-19T19:02:45.857Z,98065.38
2023-01-19T19:05:13.561Z,98070.16
2023-01-19T19:07:40.973Z,98068.91
2023-01-19T19:10:10.522Z,98063.91
2023-01-19T19:12:38.910Z,98070.25
2023-01-19T19:15:08.618Z,98062.94
2023-01-19T19:17:36.623Z,98063.13
2023-01-19T19:20:04.507Z,98055.41
2023-01-19T19:22:38.565Z,98064.69
2023-01-19T19:25:26.496Z,98062.00
2023-01-19T19:28:07.094Z,98062.88
2023-01-19T19:30:37.859Z,98063.00
2023-01-19T19:33:05.606Z,98062.13
2023-01-19T19:35:32.922Z,98054.13
2023-01-19T19:38:00.337Z,98054.72
2023-01-19T19:40:29.247Z,98052.84
2023-01-19T19:42:58.741Z,98053.69
2023-01-19T19:45:26.971Z,98053.53
2023-01-19T19:47:54.537Z,98063.19
2023-01-19T19:50:22.173Z,98058.41
2023-01-19T19:52:53.204Z,98067.28
2023-01-19T19:55:20.655Z,98065.78
2023-01-19T19:57:48.163Z,98064.94
2023-01-19T20:00:16.841Z,98075.53
2023-01-19T20:02:45.776Z,98063.28
2023-01-19T20:05:15.525Z,98060.66
2023-01-19T20:07:48.191Z,98078.00
2023-01-19T20:10:16.070Z,98083.50
2023-01-19T20:12:43.743Z,98089.41
2023-01-19T20:15:11.673Z,98077.50
2023-01-19T20:17:38.955Z,98080.47
2023-01-19T20:20:07.691Z,98075.84
2023-01-19T20:22:35.159Z,98084.03
2023-01-19T20:25:02.531Z,98082.31
2023-01-19T20:27:29.848Z,98085.28
2023-01-19T20:29:58.137Z,98087.75
2023-01-19T20:32:25.608Z,98095.03
2023-01-19T20:34:53.158Z,98088.13
2023-01-19T20:37:20.584Z,98089.22
2023-01-19T20:39:47.923Z,98085.69
2023-01-19T20:42:16.577Z,98090.13
2023-01-19T20:44:44.321Z,98091.69
2023-01-19T20:47:14.348Z,98095.47
2023-01-19T20:50:22.017Z,98096.19
2023-01-19T20:52:50.136Z,98093.41
2023-01-19T20:55:18.063Z,98093.50
2023-01-19T20:57:45.563Z,98096.38
2023-01-19T21:00:13.547Z,98096.06
2023-01-19T21:02:41.123Z,98105.13
2023-01-19T21:05:16.700Z,98110.66
2023-01-19T21:07:44.920Z,98114.72
2023-01-19T21:10:16.815Z,98107.59
2023-01-19T21:12:45.236Z,98110.59
2023-01-19T21:15:13.086Z,98117.91
2023-01-19T21:17:45.253Z,98119.88
2023-01-19T21:20:13.404Z,98131.38
2023-01-19T21:22:40.891Z,98126.41
2023-01-19T21:25:11.633Z,98130.06
2023-01-19T21:27:39.265Z,98125.03
2023-01-19T21:30:08.150Z,98128.44
2023-01-19T21:32:35.912Z,98136.94
2023-01-19T21:35:04.265Z,98131.81
2023-01-19T21:37:35.702Z,98128.00
2023-01-19T21:40:04.076Z,98135.72
2023-01-19T21:42:41.906Z,98135.56
2023-01-19T21:45:13.041Z,98135.34
2023-01-19T21:47:46.526Z,98139.16
2023-01-19T21:50:19.602Z,98138.03
2023-01-19T21:52:53.719Z,98131.56
2023-01-19T21:55:25.258Z,98136.63
2023-01-19T21:57:58.835Z,98143.88
2023-01-19T22:00:30.076Z,98132.94
2023-01-19T22:03:04.124Z,98138.53
2023-01-19T22:05:37.018Z,98137.47
2023-01-19T22:08:06.579Z,98137.03
2023-01-19T22:10:39.200Z,98145.28
2023-01-19T22:13:13.596Z,98148.84
2023-01-19T22:15:48.648Z,98148.63
2023-01-19T22:18:21.132Z,98150.94
2023-01-19T22:20:48.880Z,98155.16
2023-01-19T22:23:16.553Z,98159.78
2023-01-19T22:25:44.161Z,98157.25
2023-01-19T22:28:11.780Z,98162.72
2023-01-19T22:30:40.803Z,98162.31
2023-01-19T22:33:08.574Z,98167.78
2023-01-19T22:35:39.629Z,98168.66
2023-01-19T22:38:10.277Z,98159.81
2023-01-19T22:40:53.137Z,98161.91
2023-01-19T22:43:21.799Z,98164.47
2023-01-19T22:45:50.019Z,98165.47
2023-01-19T22:48:17.543Z,98178.16
2023-01-19T22:50:45.195Z,98171.59
2023-01-19T22:53:12.884Z,98158.94
2023-01-19T22:55:40.232Z,98158.97
2023-01-19T22:58:37.874Z,98153.69
2023-01-19T23:01:11.228Z,98157.06
2023-01-19T23:03:39.653Z,98166.69
2023-01-19T23:06:16.076Z,98168.16
2023-01-19T23:08:45.000Z,98160.97
2023-01-19T23:11:20.998Z,98161.81
2023-01-19T23:13:50.147Z,98168.56
2023-01-19T23:16:19.068Z,98162.97
2023-01-19T23:18:47.942Z,98167.81
2023-01-19T23:21:22.456Z,98169.50
2023-01-19T23:23:55.336Z,98173.47
2023-01-19T23:26:25.259Z,98171.03
2023-01-19T23:29:01.119Z,98173.59
2023-01-19T23:31:36.676Z,98178.63
2023-01-19T23:34:09.416Z,98179.16
2023-01-19T23:36:42.647Z,98185.78
2023-01-19T23:39:22.230Z,98183.13
2023-01-19T23:41:49.720Z,98184.59
2023-01-19T23:44:21.022Z,98189.44
2023-01-19T23:46:48.638Z,98192.41
2023-01-19T23:49:17.105Z,98191.13
2023-01-19T23:51:44.624Z,98188.41
2023-01-19T23:54:12.495Z,98193.81
2023-01-19T23:56:42.780Z,98205.25
2023-01-19T23:59:15.159Z,98199.41
